createdAt,value
2024-03-17T00:00:47.315Z,1008.9
2024-03-17T00:02:01.608Z,1008.9
2024-03-17T00:03:15.901Z,1008.9
2024-03-17T00:04:30.193Z,1008.9
2024-03-17T00:05:44.487Z,1008.9
2024-03-17T00:06:58.760Z,1008.9
2024-03-17T00:08:13.072Z,1008.9
2024-03-17T00:09:27.365Z,1008.9
2024-03-17T00:10:40.674Z,1008.9
2024-03-17T00:11:54.967Z,1008.9
2024-03-17T00:13:09.260Z,1008.9
2024-03-17T00:14:23.539Z,1008.9
2024-03-17T00:15:37.845Z,1008.9
2024-03-17T00:16:52.138Z,1009
2024-03-17T00:18:06.431Z,1009
2024-03-17T00:19:20.724Z,1009
2024-03-17T00:20:35.017Z,1009
2024-03-17T00:21:49.310Z,1009
2024-03-17T00:23:03.603Z,1009
2024-03-17T00:24:17.895Z,1009
2024-03-17T00:25:32.188Z,1009
2024-03-17T00:26:45.497Z,1009
2024-03-17T00:27:59.790Z,1009
2024-03-17T00:29:14.083Z,1009
2024-03-17T00:30:28.376Z,1009
2024-03-17T00:31:42.669Z,1009
2024-03-17T00:32:56.962Z,1009
2024-03-17T00:34:11.255Z,1009
2024-03-17T00:35:25.547Z,1009
2024-03-17T00:36:39.818Z,1009
2024-03-17T00:37:54.133Z,1009
2024-03-17T00:39:08.426Z,1009
2024-03-17T00:40:22.719Z,1009
2024-03-17T00:41:37.012Z,1009
2024-03-17T00:42:50.321Z,1009
2024-03-17T00:44:04.597Z,1009
2024-03-17T00:45:18.907Z,1008.9
2024-03-17T00:46:33.199Z,1008.9
2024-03-17T00:47:47.492Z,1008.9
2024-03-17T00:49:01.786Z,1008.9
2024-03-17T00:50:16.078Z,1008.9
2024-03-17T00:51:30.371Z,1009
2024-03-17T00:52:44.664Z,1009
2024-03-17T00:53:58.957Z,1009
2024-03-17T00:55:13.250Z,1009
2024-03-17T00:56:27.543Z,1009
2024-03-17T00:57:41.836Z,1009
2024-03-17T00:58:55.145Z,1009
2024-03-17T01:00:09.438Z,1009
2024-03-17T01:01:23.731Z,1009
2024-03-17T01:02:38.024Z,1009
2024-03-17T01:03:52.317Z,1009
2024-03-17T01:05:06.610Z,1009
2024-03-17T01:06:20.901Z,1009
2024-03-17T01:07:35.196Z,1009
2024-03-17T01:08:49.489Z,1009
2024-03-17T01:10:03.782Z,1009
2024-03-17T01:11:18.075Z,1009
2024-03-17T01:12:32.368Z,1009
2024-03-17T01:13:46.661Z,1009
2024-03-17T01:14:59.970Z,1009
2024-03-17T01:16:14.263Z,1009
2024-03-17T01:17:28.556Z,1008.9
2024-03-17T01:18:42.849Z,1008.9
2024-03-17T01:19:57.142Z,1008.9
2024-03-17T01:21:11.431Z,1008.9
2024-03-17T01:22:25.728Z,1008.9
2024-03-17T01:23:40.021Z,1008.9
2024-03-17T01:24:54.314Z,1008.9
2024-03-17T01:26:08.607Z,1008.9
2024-03-17T01:27:22.900Z,1008.9
2024-03-17T01:28:37.192Z,1008.9
2024-03-17T01:29:51.485Z,1008.9
2024-03-17T01:31:04.795Z,1008.9
2024-03-17T01:32:19.089Z,1008.9
2024-03-17T01:33:33.382Z,1008.9
2024-03-17T01:34:47.675Z,1008.9
2024-03-17T01:36:01.968Z,1008.9
2024-03-17T01:37:16.261Z,1008.9
2024-03-17T01:38:30.554Z,1008.9
2024-03-17T01:39:44.847Z,1008.9
2024-03-17T01:40:59.140Z,1008.9
2024-03-17T01:42:13.433Z,1008.9
2024-03-17T01:43:27.726Z,1008.9
2024-03-17T01:44:42.019Z,1008.9
2024-03-17T01:45:56.312Z,1008.9
2024-03-17T01:47:09.621Z,1008.9
2024-03-17T01:48:23.914Z,1008.9
2024-03-17T01:49:38.207Z,1008.9
2024-03-17T01:50:52.500Z,1009
2024-03-17T01:52:06.793Z,1009
2024-03-17T01:53:21.063Z,1009
2024-03-17T01:54:35.379Z,1009
2024-03-17T01:55:49.672Z,1009
2024-03-17T01:57:03.965Z,1009
2024-03-17T01:58:18.245Z,1009
2024-03-17T01:59:32.551Z,1008.9
2024-03-17T02:00:46.844Z,1008.9
2024-03-17T02:02:01.137Z,1008.9
2024-03-17T02:03:14.446Z,1008.9
2024-03-17T02:04:28.740Z,1008.9
2024-03-17T02:05:43.032Z,1008.9
2024-03-17T02:06:57.325Z,1008.9
2024-03-17T02:08:11.618Z,1008.9
2024-03-17T02:09:24.933Z,1008.9
2024-03-17T02:10:39.226Z,1008.9
2024-03-17T02:11:53.519Z,1008.9
2024-03-17T02:13:07.799Z,1008.9
2024-03-17T02:14:22.105Z,1008.9
2024-03-17T02:15:36.398Z,1008.9
2024-03-17T02:16:50.691Z,1008.9
2024-03-17T02:18:04.984Z,1008.9
2024-03-17T02:19:19.277Z,1008.9
2024-03-17T02:20:33.570Z,1008.9
2024-03-17T02:21:47.863Z,1008.9
2024-03-17T02:23:02.156Z,1008.9
2024-03-17T02:24:16.449Z,1008.9
2024-03-17T02:25:29.758Z,1008.9
2024-03-17T02:26:44.051Z,1008.9
2024-03-17T02:27:58.344Z,1008.9
2024-03-17T02:29:12.637Z,1008.9
2024-03-17T02:30:26.930Z,1008.9
2024-03-17T02:31:41.223Z,1008.9
2024-03-17T02:32:55.516Z,1008.9
2024-03-17T02:34:09.809Z,1008.9
2024-03-17T02:35:24.102Z,1008.9
2024-03-17T02:36:38.395Z,1008.9
2024-03-17T02:37:52.688Z,1008.8
2024-03-17T02:39:06.981Z,1008.8
2024-03-17T02:40:21.274Z,1008.8
2024-03-17T02:41:34.583Z,1008.8
2024-03-17T02:42:48.876Z,1008.8
2024-03-17T02:44:03.169Z,1008.8
2024-03-17T02:45:17.462Z,1008.8
2024-03-17T02:46:31.755Z,1008.8
2024-03-17T02:47:46.049Z,1008.8
2024-03-17T02:49:00.342Z,1008.8
2024-03-17T02:50:14.635Z,1008.8
2024-03-17T02:51:28.928Z,1008.8
2024-03-17T02:52:43.221Z,1008.8
2024-03-17T02:53:57.514Z,1008.8
2024-03-17T02:55:11.807Z,1008.9
2024-03-17T02:56:26.100Z,1008.9
2024-03-17T02:57:39.409Z,1008.9
2024-03-17T02:58:53.702Z,1008.9
2024-03-17T03:00:07.995Z,1008.9
2024-03-17T03:01:22.288Z,1008.9
2024-03-17T03:02:36.581Z,1008.9
2024-03-17T03:03:50.874Z,1008.9
2024-03-17T03:05:05.167Z,1008.9
2024-03-17T03:06:19.460Z,1008.9
2024-03-17T03:07:33.753Z,1008.8
2024-03-17T03:08:48.046Z,1008.8
2024-03-17T03:10:02.339Z,1008.8
2024-03-17T03:11:16.632Z,1008.8
2024-03-17T03:12:30.925Z,1008.8
2024-03-17T03:13:44.235Z,1008.8
2024-03-17T03:14:58.528Z,1008.8
2024-03-17T03:16:12.821Z,1008.8
2024-03-17T03:17:27.114Z,1008.8
2024-03-17T03:18:41.407Z,1008.8
2024-03-17T03:19:55.700Z,1008.8
2024-03-17T03:21:09.993Z,1008.8
2024-03-17T03:22:24.286Z,1008.8
2024-03-17T03:23:38.579Z,1008.8
2024-03-17T03:24:52.872Z,1008.8
2024-03-17T03:26:07.165Z,1008.8
2024-03-17T03:27:21.458Z,1008.8
2024-03-17T03:28:35.751Z,1008.8
2024-03-17T03:29:49.060Z,1008.8
2024-03-17T03:31:03.354Z,1008.8
2024-03-17T03:32:17.647Z,1008.7
2024-03-17T03:33:31.940Z,1008.7
2024-03-17T03:34:46.233Z,1008.8
2024-03-17T03:36:00.516Z,1008.8
2024-03-17T03:37:14.820Z,1008.8
2024-03-17T03:38:29.113Z,1008.8
2024-03-17T03:39:43.406Z,1008.8
2024-03-17T03:40:57.699Z,1008.8
2024-03-17T03:42:11.992Z,1008.8
2024-03-17T03:43:26.285Z,1008.9
2024-03-17T03:44:40.578Z,1008.9
2024-03-17T03:45:53.887Z,1008.9
2024-03-17T03:47:08.180Z,1008.9
2024-03-17T03:48:22.473Z,1008.9
2024-03-17T03:49:36.759Z,1008.9
2024-03-17T03:50:51.059Z,1008.9
2024-03-17T03:52:05.353Z,1008.9
2024-03-17T03:53:19.646Z,1008.9
2024-03-17T03:54:33.939Z,1008.9
2024-03-17T03:55:48.232Z,1008.9
2024-03-17T03:57:02.525Z,1008.9
2024-03-17T03:58:16.818Z,1008.9
2024-03-17T03:59:31.111Z,1008.9
2024-03-17T04:00:45.404Z,1009
2024-03-17T04:01:58.713Z,1009
2024-03-17T04:03:13.006Z,1009
2024-03-17T04:04:27.299Z,1009
2024-03-17T04:05:41.592Z,1009
2024-03-17T04:06:55.885Z,1009
2024-03-17T04:08:10.178Z,1009.1
2024-03-17T04:09:24.471Z,1009.1
2024-03-17T04:10:38.764Z,1009.1
2024-03-17T04:11:53.057Z,1009.1
2024-03-17T04:13:07.351Z,1009.1
2024-03-17T04:14:21.644Z,1009.1
2024-03-17T04:15:35.937Z,1009.1
2024-03-17T04:16:50.230Z,1009.1
2024-03-17T04:18:03.539Z,1009
2024-03-17T04:19:17.832Z,1009
2024-03-17T04:20:32.125Z,1009
2024-03-17T04:21:46.418Z,1009
2024-03-17T04:23:00.711Z,1009
2024-03-17T04:24:15.004Z,1009
2024-03-17T04:25:29.297Z,1009
2024-03-17T04:26:43.590Z,1009.1
2024-03-17T04:27:57.883Z,1009.1
2024-03-17T04:29:12.176Z,1009.1
2024-03-17T04:30:26.469Z,1009.1
2024-03-17T04:31:40.762Z,1009.1
2024-03-17T04:32:55.055Z,1009.1
2024-03-17T04:34:08.364Z,1009.1
2024-03-17T04:35:22.658Z,1009.1
2024-03-17T04:36:36.951Z,1009.1
2024-03-17T04:37:51.244Z,1009.1
2024-03-17T04:39:05.537Z,1009.1
2024-03-17T04:40:19.830Z,1009.1
2024-03-17T04:41:34.123Z,1009.1
2024-03-17T04:42:48.417Z,1009.1
2024-03-17T04:44:02.656Z,1009.1
2024-03-17T04:45:16.949Z,1009.1
2024-03-17T04:46:31.242Z,1009.1
2024-03-17T04:47:45.492Z,1009.1
2024-03-17T04:48:59.786Z,1009.1
2024-03-17T04:50:13.052Z,1009.1
2024-03-17T04:51:27.291Z,1009.2
2024-03-17T04:52:41.585Z,1009.2
2024-03-17T04:53:55.835Z,1009.2
2024-03-17T04:55:10.074Z,1009.2
2024-03-17T04:56:24.313Z,1009.2
2024-03-17T04:57:38.552Z,1009.2
2024-03-17T04:58:52.791Z,1009.2
2024-03-17T05:00:07.030Z,1009.2
2024-03-17T05:01:21.269Z,1009.2
2024-03-17T05:02:35.508Z,1009.2
2024-03-17T05:03:49.747Z,1009.2
2024-03-17T05:05:03.986Z,1009.2
2024-03-17T05:06:17.242Z,1009.2
2024-03-17T05:07:31.481Z,1009.2
2024-03-17T05:08:45.720Z,1009.2
2024-03-17T05:09:59.959Z,1009.2
2024-03-17T05:11:14.198Z,1009.3
2024-03-17T05:12:28.437Z,1009.3
2024-03-17T05:13:42.676Z,1009.3
2024-03-17T05:14:56.915Z,1009.3
2024-03-17T05:16:11.154Z,1009.3
2024-03-17T05:17:25.394Z,1009.3
2024-03-17T05:18:39.633Z,1009.3
2024-03-17T05:19:53.872Z,1009.3
2024-03-17T05:21:08.111Z,1009.3
2024-03-17T05:22:22.350Z,1009.3
2024-03-17T05:23:35.605Z,1009.3
2024-03-17T05:24:49.844Z,1009.3
2024-03-17T05:26:04.083Z,1009.3
2024-03-17T05:27:18.322Z,1009.4
2024-03-17T05:28:32.562Z,1009.4
2024-03-17T05:29:46.802Z,1009.4
2024-03-17T05:31:01.041Z,1009.4
2024-03-17T05:32:15.280Z,1009.4
2024-03-17T05:33:29.519Z,1009.5
2024-03-17T05:34:43.758Z,1009.5
2024-03-17T05:35:57.997Z,1009.4
2024-03-17T05:37:12.236Z,1009.4
2024-03-17T05:38:26.476Z,1009.5
2024-03-17T05:39:39.731Z,1009.5
2024-03-17T05:40:53.970Z,1009.5
2024-03-17T05:42:08.209Z,1009.5
2024-03-17T05:43:22.448Z,1009.5
2024-03-17T05:44:36.687Z,1009.5
2024-03-17T05:45:50.926Z,1009.5
2024-03-17T05:47:05.165Z,1009.5
2024-03-17T05:48:19.404Z,1009.5
2024-03-17T05:49:33.643Z,1009.6
2024-03-17T05:50:47.883Z,1009.6
2024-03-17T05:52:02.122Z,1009.5
2024-03-17T05:53:16.361Z,1009.6
2024-03-17T05:54:30.600Z,1009.6
2024-03-17T05:55:43.855Z,1009.6
2024-03-17T05:56:58.094Z,1009.6
2024-03-17T05:58:12.333Z,1009.6
2024-03-17T05:59:26.572Z,1009.6
2024-03-17T06:00:40.811Z,1009.6
2024-03-17T06:01:55.033Z,1009.6
2024-03-17T06:03:09.289Z,1009.7
2024-03-17T06:04:23.528Z,1009.7
2024-03-17T06:05:37.768Z,1009.7
2024-03-17T06:06:52.007Z,1009.7
2024-03-17T06:08:06.246Z,1009.7
2024-03-17T06:09:20.485Z,1009.7
2024-03-17T06:10:34.724Z,1009.7
2024-03-17T06:11:47.979Z,1009.7
2024-03-17T06:13:02.218Z,1009.8
2024-03-17T06:14:16.457Z,1009.8
2024-03-17T06:15:30.696Z,1009.7
2024-03-17T06:16:44.935Z,1009.8
2024-03-17T06:17:58.196Z,1009.8
2024-03-17T06:19:12.435Z,1009.8
2024-03-17T06:20:26.674Z,1009.8
2024-03-17T06:21:40.913Z,1009.8
2024-03-17T06:22:55.152Z,1009.8
2024-03-17T06:24:09.391Z,1009.8
2024-03-17T06:25:23.630Z,1009.8
2024-03-17T06:26:37.869Z,1009.8
2024-03-17T06:27:52.108Z,1009.8
2024-03-17T06:29:06.347Z,1009.8
2024-03-17T06:30:20.586Z,1009.8
2024-03-17T06:31:34.825Z,1009.8
2024-03-17T06:32:49.065Z,1009.8
2024-03-17T06:34:02.320Z,1009.8
2024-03-17T06:35:16.559Z,1009.8
2024-03-17T06:36:30.798Z,1009.8
2024-03-17T06:37:45.037Z,1009.8
2024-03-17T06:38:59.276Z,1009.8
2024-03-17T06:40:13.515Z,1009.9
2024-03-17T06:41:27.754Z,1009.9
2024-03-17T06:42:41.993Z,1009.9
2024-03-17T06:43:56.233Z,1009.9
2024-03-17T06:45:10.472Z,1009.8
2024-03-17T06:46:24.711Z,1009.8
2024-03-17T06:47:38.950Z,1009.9
2024-03-17T06:48:53.189Z,1009.9
2024-03-17T06:50:06.444Z,1009.9
2024-03-17T06:51:20.684Z,1009.9
2024-03-17T06:52:34.923Z,1009.9
2024-03-17T06:53:49.162Z,1010
2024-03-17T06:55:03.401Z,1010
2024-03-17T06:56:17.640Z,1010
2024-03-17T06:57:31.879Z,1010
2024-03-17T06:58:46.118Z,1010
2024-03-17T07:00:00.357Z,1010.1
2024-03-17T07:01:14.596Z,1010.1
2024-03-17T07:02:28.835Z,1010.1
2024-03-17T07:03:43.074Z,1010.1
2024-03-17T07:04:57.313Z,1010.1
2024-03-17T07:06:10.568Z,1010.1
2024-03-17T07:07:24.807Z,1010.1
2024-03-17T07:08:39.046Z,1010.1
2024-03-17T07:09:53.285Z,1010.1
2024-03-17T07:11:07.524Z,1010.1
2024-03-17T07:12:21.762Z,1010.1
2024-03-17T07:13:36.001Z,1010.2
2024-03-17T07:14:50.240Z,1010.1
2024-03-17T07:16:04.479Z,1010.1
2024-03-17T07:17:18.718Z,1010.2
2024-03-17T07:18:32.957Z,1010.2
2024-03-17T07:19:47.196Z,1010.2
2024-03-17T07:21:01.435Z,1010.1
2024-03-17T07:22:14.690Z,1010.1
2024-03-17T07:23:28.930Z,1010.2
2024-03-17T07:24:43.168Z,1010.2
2024-03-17T07:25:57.407Z,1010.2
2024-03-17T07:27:11.646Z,1010.2
2024-03-17T07:28:25.885Z,1010.2
2024-03-17T07:29:40.124Z,1010.2
2024-03-17T07:30:54.363Z,1010.2
2024-03-17T07:32:08.602Z,1010.2
2024-03-17T07:33:22.841Z,1010.2
2024-03-17T07:34:37.079Z,1010.2
2024-03-17T07:35:51.318Z,1010.2
2024-03-17T07:37:05.557Z,1010.2
2024-03-17T07:38:18.812Z,1010.2
2024-03-17T07:39:33.035Z,1010.2
2024-03-17T07:40:47.290Z,1010.2
2024-03-17T07:42:01.528Z,1010.2
2024-03-17T07:43:15.767Z,1010.2
2024-03-17T07:44:30.006Z,1010.2
2024-03-17T07:45:44.244Z,1010.2
2024-03-17T07:46:58.479Z,1010.2
2024-03-17T07:48:12.722Z,1010.2
2024-03-17T07:49:26.961Z,1010.2
2024-03-17T07:50:41.200Z,1010.2
2024-03-17T07:51:55.439Z,1010.2
2024-03-17T07:53:09.672Z,1010.2
2024-03-17T07:54:22.912Z,1010.2
2024-03-17T07:55:37.171Z,1010.2
2024-03-17T07:56:51.410Z,1010.2
2024-03-17T07:58:05.649Z,1010.2
2024-03-17T07:59:19.889Z,1010.2
2024-03-17T08:00:34.127Z,1010.2
2024-03-17T08:01:48.366Z,1010.2
2024-03-17T08:03:02.605Z,1010.2
2024-03-17T08:04:16.844Z,1010.2
2024-03-17T08:05:31.083Z,1010.2
2024-03-17T08:06:45.321Z,1010.2
2024-03-17T08:07:59.560Z,1010.2
2024-03-17T08:09:13.788Z,1010.2
2024-03-17T08:10:27.055Z,1010.2
2024-03-17T08:11:41.294Z,1010.2
2024-03-17T08:12:55.533Z,1010.2
2024-03-17T08:14:09.771Z,1010.1
2024-03-17T08:15:24.010Z,1010.1
2024-03-17T08:16:38.230Z,1010.1
2024-03-17T08:17:52.487Z,1010.1
2024-03-17T08:19:06.725Z,1010.1
2024-03-17T08:20:20.964Z,1010.1
2024-03-17T08:21:35.202Z,1010.1
2024-03-17T08:22:49.441Z,1010
2024-03-17T08:24:03.669Z,1010
2024-03-17T08:25:17.917Z,1010
2024-03-17T08:26:31.172Z,1010
2024-03-17T08:27:45.410Z,1010
2024-03-17T08:28:59.648Z,1010
2024-03-17T08:30:13.887Z,1010
2024-03-17T08:31:28.125Z,1010
2024-03-17T08:32:42.364Z,1010
2024-03-17T08:33:56.602Z,1010
2024-03-17T08:35:10.840Z,1009.9
2024-03-17T08:36:25.078Z,1009.9
2024-03-17T08:37:39.317Z,1009.9
2024-03-17T08:38:53.555Z,1009.9
2024-03-17T08:40:07.793Z,1009.9
2024-03-17T08:41:22.032Z,1009.9
2024-03-17T08:42:35.286Z,1009.9
2024-03-17T08:43:49.524Z,1009.9
2024-03-17T08:45:03.763Z,1009.8
2024-03-17T08:46:18.001Z,1009.8
2024-03-17T08:47:32.239Z,1009.8
2024-03-17T08:48:46.478Z,1009.8
2024-03-17T08:50:00.716Z,1009.8
2024-03-17T08:51:14.954Z,1009.8
2024-03-17T08:52:29.193Z,1009.8
2024-03-17T08:53:43.431Z,1009.8
2024-03-17T08:54:57.669Z,1009.8
2024-03-17T08:56:11.908Z,1009.7
2024-03-17T08:57:26.147Z,1009.7
2024-03-17T08:58:39.401Z,1009.7
2024-03-17T08:59:53.640Z,1009.7
2024-03-17T09:01:07.878Z,1009.7
2024-03-17T09:02:22.117Z,1009.7
2024-03-17T09:03:36.355Z,1009.7
2024-03-17T09:04:50.594Z,1009.7
2024-03-17T09:06:04.832Z,1009.7
2024-03-17T09:07:19.070Z,1009.7
2024-03-17T09:08:33.309Z,1009.7
2024-03-17T09:09:47.547Z,1009.7
2024-03-17T09:11:01.786Z,1009.7
2024-03-17T09:12:16.024Z,1009.7
2024-03-17T09:13:30.244Z,1009.7
2024-03-17T09:14:43.517Z,1009.6
2024-03-17T09:15:57.756Z,1009.6
2024-03-17T09:17:11.994Z,1009.6
2024-03-17T09:18:26.233Z,1009.6
2024-03-17T09:19:40.471Z,1009.6
2024-03-17T09:20:54.710Z,1009.5
2024-03-17T09:22:08.948Z,1009.5
2024-03-17T09:23:23.186Z,1009.5
2024-03-17T09:24:37.425Z,1009.5
2024-03-17T09:25:51.663Z,1009.5
2024-03-17T09:27:05.902Z,1009.6
2024-03-17T09:28:20.140Z,1009.6
2024-03-17T09:29:34.379Z,1009.6
2024-03-17T09:30:47.633Z,1009.6
2024-03-17T09:32:01.872Z,1009.6
2024-03-17T09:33:16.110Z,1009.6
2024-03-17T09:34:30.348Z,1009.6
2024-03-17T09:35:44.587Z,1009.6
2024-03-17T09:36:58.825Z,1009.6
2024-03-17T09:38:13.065Z,1009.6
2024-03-17T09:39:27.303Z,1009.5
2024-03-17T09:40:41.542Z,1009.5
2024-03-17T09:41:55.780Z,1009.6
2024-03-17T09:43:10.018Z,1009.5
2024-03-17T09:44:24.257Z,1009.5
2024-03-17T09:45:38.495Z,1009.5
2024-03-17T09:46:51.750Z,1009.5
2024-03-17T09:48:05.988Z,1009.5
2024-03-17T09:49:20.227Z,1009.5
2024-03-17T09:50:34.465Z,1009.5
2024-03-17T09:51:48.703Z,1009.5
2024-03-17T09:53:02.942Z,1009.5
2024-03-17T09:54:17.180Z,1009.5
2024-03-17T09:55:31.418Z,1009.5
2024-03-17T09:56:45.657Z,1009.5
2024-03-17T09:57:59.895Z,1009.5
2024-03-17T09:59:14.134Z,1009.4
2024-03-17T10:00:28.372Z,1009.4
2024-03-17T10:01:42.610Z,1009.4
2024-03-17T10:02:55.865Z,1009.4
2024-03-17T10:04:10.103Z,1009.4
2024-03-17T10:05:24.342Z,1009.4
2024-03-17T10:06:38.580Z,1009.4
2024-03-17T10:07:52.819Z,1009.4
2024-03-17T10:09:07.057Z,1009.4
2024-03-17T10:10:21.295Z,1009.3
2024-03-17T10:11:35.533Z,1009.3
2024-03-17T10:12:49.772Z,1009.4
2024-03-17T10:14:04.010Z,1009.4
2024-03-17T10:15:18.248Z,1009.4
2024-03-17T10:16:32.487Z,1009.4
2024-03-17T10:17:46.725Z,1009.4
2024-03-17T10:18:59.980Z,1009.4
2024-03-17T10:20:14.218Z,1009.4
2024-03-17T10:21:28.456Z,1009.4
2024-03-17T10:22:42.695Z,1009.4
2024-03-17T10:23:56.933Z,1009.4
2024-03-17T10:25:11.171Z,1009.4
2024-03-17T10:26:24.431Z,1009.4
2024-03-17T10:27:38.669Z,1009.4
2024-03-17T10:28:52.908Z,1009.4
2024-03-17T10:30:07.146Z,1009.4
2024-03-17T10:31:21.385Z,1009.4
2024-03-17T10:32:35.623Z,1009.4
2024-03-17T10:33:49.861Z,1009.4
2024-03-17T10:35:04.100Z,1009.4
2024-03-17T10:36:18.338Z,1009.4
2024-03-17T10:37:32.576Z,1009.4
2024-03-17T10:38:46.814Z,1009.4
2024-03-17T10:40:01.053Z,1009.4
2024-03-17T10:41:15.292Z,1009.4
2024-03-17T10:42:28.546Z,1009.4
2024-03-17T10:43:42.784Z,1009.4
2024-03-17T10:44:57.023Z,1009.3
2024-03-17T10:46:11.261Z,1009.3
2024-03-17T10:47:25.499Z,1009.3
2024-03-17T10:48:39.738Z,1009.3
2024-03-17T10:49:53.976Z,1009.3
2024-03-17T10:51:08.215Z,1009.3
2024-03-17T10:52:22.453Z,1009.3
2024-03-17T10:53:36.691Z,1009.3
2024-03-17T10:54:50.930Z,1009.3
2024-03-17T10:56:05.168Z,1009.3
2024-03-17T10:57:19.406Z,1009.3
2024-03-17T10:58:32.661Z,1009.3
2024-03-17T10:59:46.899Z,1009.3
2024-03-17T11:01:01.137Z,1009.3
2024-03-17T11:02:15.376Z,1009.3
2024-03-17T11:03:29.614Z,1009.3
2024-03-17T11:04:43.853Z,1009.3
2024-03-17T11:05:58.092Z,1009.3
2024-03-17T11:07:12.330Z,1009.3
2024-03-17T11:08:26.569Z,1009.3
2024-03-17T11:09:40.807Z,1009.3
2024-03-17T11:10:55.045Z,1009.3
2024-03-17T11:12:09.284Z,1009.3
2024-03-17T11:13:23.522Z,1009.3
2024-03-17T11:14:36.777Z,1009.3
2024-03-17T11:15:51.015Z,1009.2
2024-03-17T11:17:05.253Z,1009.2
2024-03-17T11:18:19.492Z,1009.2
2024-03-17T11:19:33.730Z,1009.1
2024-03-17T11:20:47.969Z,1009.1
2024-03-17T11:22:02.207Z,1009.1
2024-03-17T11:23:16.446Z,1009.1
2024-03-17T11:24:30.684Z,1009.2
2024-03-17T11:25:44.923Z,1009.1
2024-03-17T11:26:59.161Z,1009.1
2024-03-17T11:28:13.399Z,1009.1
2024-03-17T11:29:27.638Z,1009
2024-03-17T11:30:40.892Z,1009.1
2024-03-17T11:31:55.130Z,1009
2024-03-17T11:33:09.368Z,1009.1
2024-03-17T11:34:23.607Z,1009.1
2024-03-17T11:35:37.845Z,1009.1
2024-03-17T11:36:52.084Z,1009.1
2024-03-17T11:38:06.322Z,1009
2024-03-17T11:39:20.560Z,1009
2024-03-17T11:40:34.799Z,1009
2024-03-17T11:41:49.037Z,1009
2024-03-17T11:43:03.275Z,1008.9
2024-03-17T11:44:17.514Z,1009
2024-03-17T11:45:31.752Z,1009
2024-03-17T11:46:45.006Z,1009
2024-03-17T11:47:59.245Z,1009
2024-03-17T11:49:13.483Z,1008.9
2024-03-17T11:50:27.721Z,1008.9
2024-03-17T11:51:41.960Z,1008.9
2024-03-17T11:52:56.198Z,1008.9
2024-03-17T11:54:10.436Z,1008.9
2024-03-17T11:55:24.675Z,1008.9
2024-03-17T11:56:38.913Z,1008.9
2024-03-17T11:57:53.151Z,1008.8
2024-03-17T11:59:07.390Z,1008.8
2024-03-17T12:00:21.628Z,1008.9
2024-03-17T12:01:35.866Z,1008.8
2024-03-17T12:02:49.121Z,1008.8
2024-03-17T12:04:03.359Z,1008.9
2024-03-17T12:05:17.597Z,1008.9
2024-03-17T12:06:31.818Z,1008.9
2024-03-17T12:07:46.074Z,1008.9
2024-03-17T12:09:00.312Z,1008.9
2024-03-17T12:10:14.551Z,1008.9
2024-03-17T12:11:28.789Z,1008.9
2024-03-17T12:12:43.027Z,1008.9
2024-03-17T12:13:57.265Z,1008.9
2024-03-17T12:15:11.504Z,1008.8
2024-03-17T12:16:25.742Z,1008.9
2024-03-17T12:17:39.980Z,1008.8
2024-03-17T12:18:53.235Z,1008.8
2024-03-17T12:20:07.473Z,1008.8
2024-03-17T12:21:21.711Z,1008.8
2024-03-17T12:22:35.949Z,1008.8
2024-03-17T12:23:50.188Z,1008.8
2024-03-17T12:25:04.426Z,1008.7
2024-03-17T12:26:18.664Z,1008.7
2024-03-17T12:27:32.903Z,1008.6
2024-03-17T12:28:47.141Z,1008.6
2024-03-17T12:30:01.379Z,1008.6
2024-03-17T12:31:15.618Z,1008.6
2024-03-17T12:32:29.856Z,1008.6
2024-03-17T12:33:44.094Z,1008.6
2024-03-17T12:34:57.349Z,1008.6
2024-03-17T12:36:11.587Z,1008.6
2024-03-17T12:37:25.825Z,1008.6
2024-03-17T12:38:40.063Z,1008.5
2024-03-17T12:39:54.302Z,1008.6
2024-03-17T12:41:08.540Z,1008.5
2024-03-17T12:42:22.778Z,1008.5
2024-03-17T12:43:37.016Z,1008.5
2024-03-17T12:44:51.254Z,1008.5
2024-03-17T12:46:05.492Z,1008.5
2024-03-17T12:47:19.731Z,1008.5
2024-03-17T12:48:33.969Z,1008.5
2024-03-17T12:49:48.207Z,1008.5
2024-03-17T12:51:01.462Z,1008.5
2024-03-17T12:52:15.701Z,1008.5
2024-03-17T12:53:29.939Z,1008.5
2024-03-17T12:54:44.177Z,1008.6
2024-03-17T12:55:58.415Z,1008.6
2024-03-17T12:57:12.654Z,1008.5
2024-03-17T12:58:26.892Z,1008.6
2024-03-17T12:59:41.130Z,1008.5
2024-03-17T13:00:55.369Z,1008.5
2024-03-17T13:02:09.607Z,1008.5
2024-03-17T13:03:23.845Z,1008.5
2024-03-17T13:04:38.083Z,1008.5
2024-03-17T13:05:52.322Z,1008.5
2024-03-17T13:07:05.576Z,1008.5
2024-03-17T13:08:19.814Z,1008.5
2024-03-17T13:09:34.052Z,1008.5
2024-03-17T13:10:48.291Z,1008.4
2024-03-17T13:12:02.529Z,1008.4
2024-03-17T13:13:16.768Z,1008.4
2024-03-17T13:14:31.006Z,1008.4
2024-03-17T13:15:45.244Z,1008.4
2024-03-17T13:16:59.482Z,1008.3
2024-03-17T13:18:13.721Z,1008.3
2024-03-17T13:19:27.959Z,1008.3
2024-03-17T13:20:42.198Z,1008.3
2024-03-17T13:21:56.436Z,1008.3
2024-03-17T13:23:09.690Z,1008.3
2024-03-17T13:24:23.929Z,1008.2
2024-03-17T13:25:38.167Z,1008.2
2024-03-17T13:26:52.405Z,1008.2
2024-03-17T13:28:06.643Z,1008.2
2024-03-17T13:29:20.881Z,1008.2
2024-03-17T13:30:35.120Z,1008.1
2024-03-17T13:31:49.358Z,1008.1
2024-03-17T13:33:03.597Z,1008.1
2024-03-17T13:34:17.835Z,1008.1
2024-03-17T13:35:32.073Z,1008.1
2024-03-17T13:36:46.311Z,1008.1
2024-03-17T13:38:00.550Z,1008.1
2024-03-17T13:39:13.804Z,1008.1
2024-03-17T13:40:28.042Z,1008.1
2024-03-17T13:41:42.267Z,1008.1
2024-03-17T13:42:56.519Z,1008.1
2024-03-17T13:44:10.757Z,1008.1
2024-03-17T13:45:24.996Z,1008.1
2024-03-17T13:46:39.234Z,1008.1
2024-03-17T13:47:53.472Z,1008.1
2024-03-17T13:49:07.710Z,1008.1
2024-03-17T13:50:21.949Z,1008.1
2024-03-17T13:51:36.187Z,1008.1
2024-03-17T13:52:50.425Z,1008.2
2024-03-17T13:54:04.664Z,1008.2
2024-03-17T13:55:17.918Z,1008.2
2024-03-17T13:56:32.156Z,1008.2
2024-03-17T13:57:46.395Z,1008.2
2024-03-17T13:59:00.633Z,1008.2
2024-03-17T14:00:14.871Z,1008.2
2024-03-17T14:01:29.109Z,1008.2
2024-03-17T14:02:43.348Z,1008.2
2024-03-17T14:03:57.586Z,1008.2
2024-03-17T14:05:11.825Z,1008.2
2024-03-17T14:06:26.063Z,1008.1
2024-03-17T14:07:40.301Z,1008.2
2024-03-17T14:08:54.539Z,1008.2
2024-03-17T14:10:08.778Z,1008.2
2024-03-17T14:11:22.032Z,1008.2
2024-03-17T14:12:36.270Z,1008.2
2024-03-17T14:13:50.509Z,1008.2
2024-03-17T14:15:04.747Z,1008.2
2024-03-17T14:16:18.986Z,1008.2
2024-03-17T14:17:33.224Z,1008.2
2024-03-17T14:18:47.462Z,1008.2
2024-03-17T14:20:01.700Z,1008.2
2024-03-17T14:21:15.939Z,1008.2
2024-03-17T14:22:30.177Z,1008.2
2024-03-17T14:23:44.415Z,1008.1
2024-03-17T14:24:58.654Z,1008
2024-03-17T14:26:12.894Z,1008.1
2024-03-17T14:27:26.147Z,1008.1
2024-03-17T14:28:40.385Z,1008.1
2024-03-17T14:29:54.623Z,1008
2024-03-17T14:31:08.862Z,1008
2024-03-17T14:32:23.100Z,1008
2024-03-17T14:33:37.338Z,1008
2024-03-17T14:34:50.598Z,1008
2024-03-17T14:36:04.836Z,1008
2024-03-17T14:37:19.075Z,1008
2024-03-17T14:38:33.313Z,1008
2024-03-17T14:39:47.551Z,1007.9
2024-03-17T14:41:01.790Z,1008
2024-03-17T14:42:16.028Z,1008
2024-03-17T14:43:30.266Z,1008
2024-03-17T14:44:44.505Z,1007.9
2024-03-17T14:45:58.743Z,1007.9
2024-03-17T14:47:12.981Z,1007.9
2024-03-17T14:48:27.220Z,1007.9
2024-03-17T14:49:41.458Z,1007.9
2024-03-17T14:50:54.712Z,1007.9
2024-03-17T14:52:08.951Z,1007.9
2024-03-17T14:53:23.189Z,1007.9
2024-03-17T14:54:37.427Z,1007.9
2024-03-17T14:55:51.665Z,1007.9
2024-03-17T14:57:05.903Z,1007.9
2024-03-17T14:58:20.142Z,1007.9
2024-03-17T14:59:34.380Z,1007.9
2024-03-17T15:00:48.618Z,1007.9
2024-03-17T15:02:02.857Z,1007.9
2024-03-17T15:03:17.095Z,1007.9
2024-03-17T15:04:31.333Z,1007.9
2024-03-17T15:05:45.571Z,1007.9
2024-03-17T15:06:58.826Z,1007.8
2024-03-17T15:08:13.064Z,1007.8
2024-03-17T15:09:27.303Z,1007.8
2024-03-17T15:10:41.541Z,1007.8
2024-03-17T15:11:55.779Z,1007.8
2024-03-17T15:13:10.017Z,1007.8
2024-03-17T15:14:24.256Z,1007.8
2024-03-17T15:15:38.494Z,1007.8
2024-03-17T15:16:52.732Z,1007.8
2024-03-17T15:18:06.970Z,1007.8
2024-03-17T15:19:21.209Z,1007.8
2024-03-17T15:20:35.447Z,1007.8
2024-03-17T15:21:49.685Z,1007.8
2024-03-17T15:23:02.940Z,1007.8
2024-03-17T15:24:17.178Z,1007.7
2024-03-17T15:25:31.416Z,1007.7
2024-03-17T15:26:45.654Z,1007.7
2024-03-17T15:27:59.893Z,1007.8
2024-03-17T15:29:14.131Z,1007.8
2024-03-17T15:30:28.370Z,1007.8
2024-03-17T15:31:42.608Z,1007.8
2024-03-17T15:32:56.846Z,1007.8